Time;durP1;ratioP1;P1;durP2;ratioP2;P2;SDS_P1;SDS_P2;PMS_P1;PMS_P2;Temp;Humidity;BMP_temperature;BMP_pressure;BME280_temperature;BME280_humidity;BME280_pressure;Samples;Min_cycle;Max_cycle;Signal;HPM_P1;HPM_P2
2023/07/07 00:00:55;;;;;;;7.23;3.80;;;;;;;21.71;40.68;97678.88;5010219;28;20300;-71
2023/07/07 00:03:20;;;;;;;6.20;3.10;;;;;;;21.65;40.80;97679.72;5009811;28;20306;-71
2023/07/07 00:05:47;;;;;;;4.87;3.30;;;;;;;21.60;41.21;97677.69;5010491;28;20196;-71
2023/07/07 00:08:13;;;;;;;5.27;3.53;;;;;;;21.60;41.05;97671.53;5011269;28;20215;-70
2023/07/07 00:10:38;;;;;;;6.10;3.63;;;;;;;21.53;41.33;97670.69;5009991;28;20921;-70
2023/07/07 00:13:04;;;;;;;4.17;3.33;;;;;;;21.51;41.25;97673.59;5007524;28;20220;-71
2023/07/07 00:15:30;;;;;;;4.30;3.67;;;;;;;21.51;41.61;97672.75;5010139;28;20192;-70
2023/07/07 00:17:55;;;;;;;4.97;3.40;;;;;;;21.47;41.49;97673.19;5015370;28;20200;-69
2023/07/07 00:20:21;;;;;;;4.13;3.40;;;;;;;21.43;41.44;97671.16;5015898;28;20226;-70
2023/07/07 00:22:47;;;;;;;6.73;3.57;;;;;;;21.46;41.41;97670.72;5012908;28;20275;-71
2023/07/07 00:25:13;;;;;;;5.63;3.93;;;;;;;21.49;41.53;97670.31;5017485;28;20896;-70
2023/07/07 00:27:39;;;;;;;5.63;3.90;;;;;;;21.44;41.80;97673.63;5011342;28;20438;-71
2023/07/07 00:30:07;;;;;;;7.40;3.50;;;;;;;21.44;41.64;97676.28;5022561;28;20492;-70
2023/07/07 00:32:33;;;;;;;4.43;3.37;;;;;;;21.44;41.69;97683.44;4998932;28;20214;-70
2023/07/07 00:34:58;;;;;;;4.97;3.80;;;;;;;21.39;41.81;97675.28;5015370;28;20952;-70
2023/07/07 00:37:24;;;;;;;5.40;3.90;;;;;;;21.33;41.68;97669.75;5010653;28;20201;-71
2023/07/07 00:39:49;;;;;;;4.60;3.53;;;;;;;21.33;41.61;97663.63;5017300;28;20295;-71
2023/07/07 00:42:15;;;;;;;5.80;3.20;;;;;;;21.32;41.88;97664.63;5013783;28;20311;-70
2023/07/07 00:45:08;;;;;;;5.10;3.60;;;;;;;21.25;42.03;97659.34;5010389;28;20660;-71
2023/07/07 00:47:36;;;;;;;7.23;4.30;;;;;;;21.24;42.29;97665.69;5009461;28;20266;-70
2023/07/07 00:50:02;;;;;;;8.40;4.00;;;;;;;21.08;42.66;97669.63;5016798;28;20449;-70
2023/07/07 00:52:28;;;;;;;9.93;4.37;;;;;;;21.05;42.68;97667.38;5011373;28;20435;-71
2023/07/07 00:54:53;;;;;;;7.13;3.40;;;;;;;21.02;42.87;97671.28;5020237;28;20699;-69
2023/07/07 00:57:19;;;;;;;3.90;3.50;;;;;;;21.04;42.78;97667.59;5015575;28;20279;-71
2023/07/07 00:59:46;;;;;;;4.20;3.30;;;;;;;21.00;42.50;97676.00;5009670;28;20188;-72
2023/07/07 01:02:15;;;;;;;6.07;3.77;;;;;;;20.99;42.58;97676.19;5023231;28;20189;-71
2023/07/07 01:04:42;;;;;;;10.67;3.70;;;;;;;20.98;42.41;97680.72;5012210;28;20546;-70
2023/07/07 01:07:13;;;;;;;3.80;3.50;;;;;;;20.95;42.68;97683.78;5009093;28;20522;-71
2023/07/07 01:09:39;;;;;;;5.00;3.30;;;;;;;20.92;43.10;97676.19;5009831;28;20431;-71
2023/07/07 01:12:10;;;;;;;8.43;3.60;;;;;;;20.94;42.66;97684.81;5006922;28;20439;-70
2023/07/07 01:14:35;;;;;;;5.77;3.40;;;;;;;20.94;42.88;97690.13;5009763;28;20240;-72
2023/07/07 01:17:13;;;;;;;7.23;3.70;;;;;;;20.89;43.10;97692.63;5008398;28;20435;-69
2023/07/07 01:19:50;;;;;;;4.30;3.90;;;;;;;20.96;42.97;97688.09;5004086;28;20230;-70
2023/07/07 01:22:53;;;;;;;4.33;3.90;;;;;;;20.88;42.96;97680.31;5001915;28;20769;-71
2023/07/07 01:25:43;;;;;;;5.73;3.50;;;;;;;20.85;43.23;97686.06;5014913;28;20473;-71
2023/07/07 01:28:20;;;;;;;4.70;3.60;;;;;;;20.83;43.31;97690.75;5008797;28;20438;-70
2023/07/07 01:31:05;;;;;;;5.63;3.50;;;;;;;20.78;43.26;97688.72;5009187;28;20966;-69
2023/07/07 01:33:31;;;;;;;4.60;3.40;;;;;;;20.72;43.72;97686.88;5007292;28;20479;-71
2023/07/07 01:35:57;;;;;;;4.27;3.87;;;;;;;20.64;43.85;97687.88;5008547;28;20501;-71
2023/07/07 01:38:34;;;;;;;4.20;3.30;;;;;;;20.56;43.62;97688.91;5017520;28;20513;-69
2023/07/07 01:41:09;;;;;;;6.53;3.23;;;;;;;20.55;43.83;97694.41;5003448;28;20205;-70
2023/07/07 01:44:10;;;;;;;4.07;3.50;;;;;;;20.55;44.29;97687.28;5007920;28;20537;-70
2023/07/07 01:46:46;;;;;;;5.13;3.70;;;;;;;20.59;43.61;97677.03;5000525;28;20423;-70
2023/07/07 01:49:48;;;;;;;5.70;3.90;;;;;;;20.55;44.07;97695.25;5007800;28;20454;-70
2023/07/07 01:52:19;;;;;;;4.37;3.53;;;;;;;20.60;44.18;97688.50;5020366;28;20446;-68
2023/07/07 01:54:48;;;;;;;4.63;3.50;;;;;;;20.59;43.82;97687.69;5015912;28;20454;-69
2023/07/07 01:57:14;;;;;;;3.50;3.20;;;;;;;20.55;43.76;97695.25;5020188;28;20453;-68
2023/07/07 01:59:41;;;;;;;5.17;3.40;;;;;;;20.54;43.54;97692.81;5006614;28;21011;-69
2023/07/07 02:02:07;;;;;;;5.87;3.70;;;;;;;20.45;44.38;97691.34;5005911;28;20435;-70
2023/07/07 02:04:32;;;;;;;5.47;3.60;;;;;;;20.45;44.21;97686.88;5008246;28;21026;-71
2023/07/07 02:06:57;;;;;;;7.70;3.70;;;;;;;20.42;44.16;97685.41;5007732;28;20192;-69
2023/07/07 02:09:23;;;;;;;3.00;2.80;;;;;;;20.36;44.47;97682.75;5008766;28;20275;-70
2023/07/07 02:11:48;;;;;;;3.87;3.37;;;;;;;20.34;44.32;97684.81;5008842;28;20219;-71
2023/07/07 02:14:14;;;;;;;4.70;3.30;;;;;;;20.32;44.34;97685.00;5010561;28;20207;-69
2023/07/07 02:16:39;;;;;;;4.77;3.40;;;;;;;20.29;44.50;97680.06;5007726;28;20192;-70
2023/07/07 02:19:05;;;;;;;3.60;3.30;;;;;;;20.27;44.37;97684.81;5007756;28;20215;-71
2023/07/07 02:21:30;;;;;;;3.67;3.37;;;;;;;20.23;44.67;97680.91;5008177;28;20223;-69
2023/07/07 02:23:56;;;;;;;4.20;3.30;;;;;;;20.17;44.44;97673.72;5015610;28;20290;-69
2023/07/07 02:26:21;;;;;;;4.03;2.93;;;;;;;20.18;44.39;97675.34;5016367;28;20220;-71
2023/07/07 02:28:47;;;;;;;4.13;3.40;;;;;;;20.20;44.41;97678.63;5008941;28;20668;-69
2023/07/07 02:31:13;;;;;;;4.73;3.53;;;;;;;20.12;44.54;97676.97;5007605;28;20196;-70
2023/07/07 02:33:38;;;;;;;5.13;3.80;;;;;;;20.08;44.81;97681.91;5007690;28;20220;-69
2023/07/07 02:36:06;;;;;;;3.90;3.30;;;;;;;20.08;44.82;97675.78;5014399;28;20462;-70
2023/07/07 02:38:32;;;;;;;5.27;3.30;;;;;;;20.07;45.00;97685.56;5014078;28;20203;-71
2023/07/07 02:40:58;;;;;;;5.10;3.67;;;;;;;20.03;44.86;97679.03;5014180;28;20431;-69
2023/07/07 02:43:23;;;;;;;7.23;4.30;;;;;;;20.00;45.05;97679.44;5015809;28;20744;-68
2023/07/07 02:45:49;;;;;;;5.73;3.60;;;;;;;20.03;44.85;97680.88;5012158;28;20184;-70
2023/07/07 02:48:16;;;;;;;4.20;3.50;;;;;;;19.95;44.85;97685.38;5023498;28;20196;-70
2023/07/07 02:50:42;;;;;;;5.10;3.40;;;;;;;19.93;44.80;97682.06;5012405;28;20732;-70
2023/07/07 02:53:07;;;;;;;5.07;3.93;;;;;;;19.87;45.12;97684.72;5020479;28;20549;-69
2023/07/07 02:55:32;;;;;;;6.03;3.77;;;;;;;19.86;45.37;97680.38;5014126;28;20199;-70
2023/07/07 02:57:58;;;;;;;4.80;3.47;;;;;;;19.89;45.31;97685.34;5010550;28;20653;-70
2023/07/07 03:00:24;;;;;;;4.40;3.77;;;;;;;19.86;45.29;97686.53;5011784;28;20927;-69
2023/07/07 03:02:50;;;;;;;4.90;2.93;;;;;;;19.82;45.20;97681.78;5010848;28;20192;-70
2023/07/07 03:05:15;;;;;;;4.83;3.57;;;;;;;19.83;45.23;97678.13;5019235;28;20599;-70
2023/07/07 03:07:40;;;;;;;6.83;3.90;;;;;;;19.89;45.03;97677.38;5019982;28;20225;-69
2023/07/07 03:10:06;;;;;;;5.00;3.97;;;;;;;19.91;44.95;97683.31;5012241;28;20275;-68
2023/07/07 03:12:32;;;;;;;4.40;3.70;;;;;;;19.91;45.19;97675.31;5011133;28;20200;-69
2023/07/07 03:14:57;;;;;;;5.70;3.77;;;;;;;19.87;45.08;97682.06;5015267;28;20476;-71
2023/07/07 03:17:23;;;;;;;5.17;3.30;;;;;;;19.83;44.93;97689.59;5002329;28;20673;-69
2023/07/07 03:19:49;;;;;;;4.80;3.47;;;;;;;19.78;45.30;97687.50;5019047;28;20196;-69
2023/07/07 03:22:14;;;;;;;5.30;3.80;;;;;;;19.77;45.17;97690.38;5004370;28;20189;-71
2023/07/07 03:24:40;;;;;;;3.97;3.57;;;;;;;19.76;45.39;97694.06;5010055;28;20654;-72
2023/07/07 03:27:05;;;;;;;6.00;3.53;;;;;;;19.73;45.45;97695.28;5009443;28;20687;-70
2023/07/07 03:29:31;;;;;;;4.30;3.53;;;;;;;19.71;45.85;97699.97;5010903;28;20207;-70
2023/07/07 03:31:56;;;;;;;3.80;3.40;;;;;;;19.68;45.62;97702.22;5018683;28;20279;-70
2023/07/07 03:34:22;;;;;;;10.50;3.80;;;;;;;19.65;45.49;97698.94;5010046;28;20240;-70
2023/07/07 03:36:48;;;;;;;6.60;4.50;;;;;;;19.64;45.74;97707.13;5010905;28;20641;-70
2023/07/07 03:39:14;;;;;;;3.93;3.50;;;;;;;19.59;45.92;97706.88;5020225;28;20202;-71
2023/07/07 03:41:40;;;;;;;6.70;3.97;;;;;;;19.58;46.01;97713.22;5014601;28;20434;-70
2023/07/07 03:44:05;;;;;;;4.50;3.87;;;;;;;19.58;46.03;97707.88;5011445;28;20530;-70
2023/07/07 03:46:31;;;;;;;5.20;4.10;;;;;;;19.53;46.18;97713.00;5023019;28;20222;-72
2023/07/07 03:48:57;;;;;;;5.60;3.87;;;;;;;19.51;46.29;97707.84;5010013;28;20296;-69
2023/07/07 03:51:24;;;;;;;5.33;3.50;;;;;;;19.50;46.22;97716.84;5010980;28;20261;-69
2023/07/07 03:53:50;;;;;;;5.63;3.83;;;;;;;19.52;46.63;97720.13;5010202;28;20299;-72
2023/07/07 03:56:16;;;;;;;7.67;3.73;;;;;;;19.54;46.31;97719.94;5008410;28;20443;-72
2023/07/07 03:58:42;;;;;;;5.90;4.27;;;;;;;19.54;46.29;97730.56;5010150;28;20481;-70
2023/07/07 04:01:15;;;;;;;4.00;3.40;;;;;;;19.52;46.12;97729.97;5007832;28;20192;-70
2023/07/07 04:03:42;;;;;;;6.43;4.13;;;;;;;19.49;46.48;97724.00;5014337;28;20447;-71
2023/07/07 04:06:08;;;;;;;6.23;4.10;;;;;;;19.50;46.68;97724.81;5011105;28;21150;-70
2023/07/07 04:08:33;;;;;;;6.77;4.07;;;;;;;19.56;46.64;97724.06;5016380;28;20430;-70
2023/07/07 04:11:04;;;;;;;4.87;3.50;;;;;;;19.59;46.53;97730.81;5010680;28;20205;-69
2023/07/07 04:13:33;;;;;;;5.20;4.10;;;;;;;19.57;46.23;97727.50;5022627;28;20281;-69
2023/07/07 04:15:59;;;;;;;4.97;3.70;;;;;;;19.55;46.63;97718.91;5008355;28;20470;-71
2023/07/07 04:18:25;;;;;;;5.73;3.43;;;;;;;19.62;46.86;97730.41;5008979;28;20447;-70
2023/07/07 04:20:50;;;;;;;4.10;3.70;;;;;;;19.64;46.92;97723.88;5009824;28;20431;-70
2023/07/07 04:23:16;;;;;;;5.90;3.80;;;;;;;19.65;46.58;97725.50;5008407;28;20270;-70
2023/07/07 04:25:44;;;;;;;9.93;4.23;;;;;;;19.65;46.81;97730.03;5010221;28;20644;-71
2023/07/07 04:28:09;;;;;;;7.27;3.60;;;;;;;19.66;46.94;97721.00;5008948;28;20738;-71
2023/07/07 04:30:35;;;;;;;11.20;4.30;;;;;;;19.70;46.84;97719.59;5009856;28;20423;-71
2023/07/07 04:33:00;;;;;;;4.73;4.00;;;;;;;19.71;46.99;97723.09;5009099;28;20704;-73
2023/07/07 04:35:26;;;;;;;6.80;3.80;;;;;;;19.78;46.99;97723.94;5007108;28;20200;-71
2023/07/07 04:37:51;;;;;;;4.03;3.67;;;;;;;19.83;46.92;97731.31;5009257;28;20275;-70
2023/07/07 04:40:17;;;;;;;4.40;4.00;;;;;;;19.84;47.02;97732.94;5008800;28;20653;-70
2023/07/07 04:42:42;;;;;;;4.40;4.00;;;;;;;19.91;46.88;97732.00;5013340;28;20207;-70
2023/07/07 04:45:08;;;;;;;5.07;3.30;;;;;;;19.94;46.85;97739.56;5009355;28;20239;-71
2023/07/07 04:47:33;;;;;;;5.40;4.07;;;;;;;19.98;46.68;97731.16;5011729;28;20661;-69
2023/07/07 04:49:59;;;;;;;6.27;4.20;;;;;;;20.00;47.06;97737.94;5018377;28;20192;-69
2023/07/07 04:52:24;;;;;;;12.40;5.07;;;;;;;20.05;47.05;97746.13;5029123;28;20608;-69
2023/07/07 04:54:50;;;;;;;6.60;4.37;;;;;;;20.09;46.79;97744.72;5022137;28;20676;-69
2023/07/07 04:57:15;;;;;;;4.70;3.97;;;;;;;20.12;46.70;97740.84;5034135;28;20196;-70
2023/07/07 04:59:41;;;;;;;7.13;4.70;;;;;;;20.16;46.82;97746.59;5020906;28;20188;-69
2023/07/07 05:02:06;;;;;;;4.80;4.40;;;;;;;20.20;46.95;97743.34;5016097;28;20295;-70
2023/07/07 05:04:32;;;;;;;6.80;4.13;;;;;;;20.29;46.76;97743.94;5008146;28;20299;-70
2023/07/07 05:06:57;;;;;;;5.20;4.10;;;;;;;20.33;46.44;97739.88;5009299;28;20271;-70
2023/07/07 05:09:23;;;;;;;6.93;4.47;;;;;;;20.34;46.55;97746.03;5020495;28;20266;-71
2023/07/07 05:11:48;;;;;;;6.70;4.37;;;;;;;20.41;46.76;97738.84;5015669;28;20667;-70
2023/07/07 05:14:13;;;;;;;8.33;4.70;;;;;;;20.48;46.55;97728.22;5012371;28;20226;-70
2023/07/07 05:16:39;;;;;;;5.80;4.10;;;;;;;20.58;46.47;97741.94;5016158;28;20218;-71
2023/07/07 05:19:05;;;;;;;6.30;4.50;;;;;;;20.68;46.29;97741.56;5012713;28;20207;-71
2023/07/07 05:21:31;;;;;;;4.60;4.10;;;;;;;20.79;46.22;97745.50;5007832;28;22098;-71
2023/07/07 05:23:57;;;;;;;5.33;3.57;;;;;;;20.89;46.14;97745.06;5005745;28;20478;-70
2023/07/07 05:26:27;;;;;;;7.60;4.03;;;;;;;20.98;46.04;97744.66;5016398;28;20878;-70
2023/07/07 05:28:54;;;;;;;8.53;4.40;;;;;;;21.09;45.77;97745.03;5008820;28;20191;-68
2023/07/07 05:31:20;;;;;;;4.87;4.47;;;;;;;21.20;45.81;97738.28;5007679;28;20428;-69
2023/07/07 05:33:45;;;;;;;5.03;4.33;;;;;;;21.30;45.37;97742.13;5008433;28;20463;-69
2023/07/07 05:36:11;;;;;;;5.80;4.37;;;;;;;21.44;45.11;97747.44;5010847;28;21004;-72
2023/07/07 05:38:40;;;;;;;5.27;4.10;;;;;;;21.57;44.80;97741.25;5017484;28;20612;-70
2023/07/07 05:41:07;;;;;;;5.27;3.90;;;;;;;21.68;44.08;97743.31;5009378;28;20215;-71
2023/07/07 05:43:34;;;;;;;9.10;4.57;;;;;;;21.80;43.39;97738.09;5011956;28;21207;-71
2023/07/07 05:46:05;;;;;;;8.90;4.43;;;;;;;21.91;43.50;97739.31;5014177;28;20451;-72
2023/07/07 05:48:31;;;;;;;5.93;4.13;;;;;;;22.03;43.22;97745.59;5008567;28;20974;-71
2023/07/07 05:50:58;;;;;;;7.03;4.20;;;;;;;22.15;42.87;97735.09;5013706;28;20427;-71
2023/07/07 05:53:24;;;;;;;9.00;5.20;;;;;;;22.27;42.61;97734.41;5011213;28;20240;-70
2023/07/07 05:55:50;;;;;;;9.77;4.90;;;;;;;22.37;42.15;97740.88;5013741;28;20458;-69
2023/07/07 05:58:17;;;;;;;6.80;4.53;;;;;;;22.50;41.97;97744.53;5014840;28;20185;-71
2023/07/07 06:00:42;;;;;;;9.83;5.67;;;;;;;22.64;41.75;97748.75;5012302;28;20192;-70
2023/07/07 06:03:08;;;;;;;5.57;4.63;;;;;;;22.78;41.36;97751.31;5017104;28;20919;-71
2023/07/07 06:05:33;;;;;;;5.43;4.43;;;;;;;22.89;41.18;97747.13;5007103;28;20196;-71
2023/07/07 06:07:59;;;;;;;9.77;4.60;;;;;;;22.99;40.98;97744.78;5008075;28;20216;-71
2023/07/07 06:10:25;;;;;;;6.30;4.70;;;;;;;23.11;40.51;97751.03;5013070;28;20909;-70
2023/07/07 06:12:50;;;;;;;7.47;4.70;;;;;;;23.24;40.36;97750.13;5017715;28;20243;-70
2023/07/07 06:15:16;;;;;;;6.07;4.40;;;;;;;23.37;39.89;97743.81;5017300;28;20266;-71
2023/07/07 06:17:42;;;;;;;12.00;4.37;;;;;;;23.48;39.58;97744.94;5014877;28;20184;-71
2023/07/07 06:20:08;;;;;;;5.77;4.20;;;;;;;23.59;39.63;97751.41;5012864;28;20431;-71
2023/07/07 06:22:33;;;;;;;5.47;4.20;;;;;;;23.75;39.28;97750.00;5013104;28;20275;-71
2023/07/07 06:25:00;;;;;;;8.53;4.43;;;;;;;23.85;38.71;97752.97;5010386;28;20240;-71
2023/07/07 06:27:26;;;;;;;8.60;4.53;;;;;;;23.95;38.73;97760.44;5011764;28;20202;-70
2023/07/07 06:29:51;;;;;;;6.07;4.67;;;;;;;23.98;38.48;97749.31;5013737;28;20506;-70
2023/07/07 06:32:17;;;;;;;10.30;4.47;;;;;;;24.07;38.68;97749.81;5020478;28;20576;-71
2023/07/07 06:34:42;;;;;;;5.70;4.83;;;;;;;24.18;38.73;97758.97;5017287;28;20645;-70
2023/07/07 06:37:08;;;;;;;5.33;4.37;;;;;;;24.34;38.51;97763.66;5013367;28;20624;-69
2023/07/07 06:39:33;;;;;;;9.30;4.60;;;;;;;24.48;38.38;97758.13;5011698;28;20223;-69
2023/07/07 06:42:00;;;;;;;16.07;4.80;;;;;;;24.61;37.92;97759.78;5013721;28;20196;-69
2023/07/07 06:44:25;;;;;;;10.90;5.00;;;;;;;24.73;37.78;97765.19;5021431;28;20563;-70
2023/07/07 06:46:51;;;;;;;8.90;4.90;;;;;;;24.79;37.69;97772.31;5013087;28;20510;-71
2023/07/07 06:49:16;;;;;;;8.80;4.83;;;;;;;24.89;37.43;97763.72;5020994;28;20685;-70
2023/07/07 06:51:42;;;;;;;9.63;5.10;;;;;;;24.92;37.23;97768.59;5012655;28;20196;-70
2023/07/07 06:54:07;;;;;;;6.97;4.60;;;;;;;25.08;36.88;97773.28;5011427;28;20780;-71
2023/07/07 06:56:33;;;;;;;9.90;4.00;;;;;;;25.09;36.74;97774.09;5013153;28;20868;-70
2023/07/07 06:58:58;;;;;;;5.50;4.60;;;;;;;25.11;36.37;97782.72;5012367;28;20566;-70
2023/07/07 07:01:24;;;;;;;7.20;4.83;;;;;;;25.23;36.48;97785.41;5010852;28;20189;-73
2023/07/07 07:03:49;;;;;;;9.57;4.93;;;;;;;25.25;36.08;97778.75;5026671;28;20204;-69
2023/07/07 07:06:15;;;;;;;6.07;4.73;;;;;;;25.16;35.81;97780.16;5009337;28;20200;-70
2023/07/07 07:08:40;;;;;;;8.30;5.03;;;;;;;25.36;36.37;97781.66;5010851;28;20763;-71
2023/07/07 07:11:06;;;;;;;7.93;4.37;;;;;;;25.35;35.93;97780.03;5013806;28;20200;-71
2023/07/07 07:13:32;;;;;;;7.53;4.90;;;;;;;25.28;36.09;97777.47;5010196;28;20295;-70
2023/07/07 07:15:58;;;;;;;12.03;4.70;;;;;;;25.45;36.21;97778.44;5011432;28;20184;-71
2023/07/07 07:18:23;;;;;;;8.03;4.70;;;;;;;25.55;35.95;97779.69;5011260;28;20466;-70
2023/07/07 07:20:50;;;;;;;11.73;4.17;;;;;;;25.63;35.97;97789.25;5011765;28;20188;-72
2023/07/07 07:23:16;;;;;;;7.70;4.93;;;;;;;25.71;35.69;97781.66;5010616;28;20648;-70
2023/07/07 07:25:42;;;;;;;9.10;4.60;;;;;;;25.83;35.39;97778.97;5005182;28;20522;-72
2023/07/07 07:28:09;;;;;;;8.13;4.63;;;;;;;25.99;35.46;97787.31;5010416;28;20188;-70
2023/07/07 07:30:34;;;;;;;9.83;4.83;;;;;;;26.19;35.80;97781.53;5014547;28;20427;-70
2023/07/07 07:33:03;;;;;;;13.40;5.10;;;;;;;26.30;34.73;97785.25;5011099;28;20474;-70
2023/07/07 07:35:28;;;;;;;4.77;4.17;;;;;;;26.45;35.01;97785.53;5011564;28;20195;-70
2023/07/07 07:37:54;;;;;;;7.00;4.83;;;;;;;26.62;34.79;97784.72;5010894;28;20959;-70
2023/07/07 07:40:22;;;;;;;10.40;4.30;;;;;;;26.78;34.82;97781.28;5014441;28;20219;-70
2023/07/07 07:42:48;;;;;;;6.47;4.30;;;;;;;26.95;34.25;97785.84;5011297;28;20191;-70
2023/07/07 07:45:17;;;;;;;5.17;4.03;;;;;;;27.10;34.23;97772.63;5013274;28;20443;-71
2023/07/07 07:47:42;;;;;;;8.63;4.40;;;;;;;27.22;33.96;97777.91;5011026;28;20218;-70
2023/07/07 07:50:08;;;;;;;7.60;4.43;;;;;;;27.37;34.02;97776.53;5010934;28;20673;-69
2023/07/07 07:52:33;;;;;;;10.10;4.77;;;;;;;27.52;33.81;97771.38;5009848;28;20195;-72
2023/07/07 07:54:59;;;;;;;6.30;4.03;;;;;;;27.60;33.30;97783.56;5023872;28;20258;-69
2023/07/07 07:57:24;;;;;;;8.23;4.70;;;;;;;27.50;33.34;97772.69;5006453;28;20195;-70
2023/07/07 07:59:49;;;;;;;6.83;3.90;;;;;;;27.50;33.14;97770.81;5010115;28;20235;-70
2023/07/07 08:02:15;;;;;;;9.23;4.37;;;;;;;27.68;33.36;97780.47;5009927;28;20220;-72
2023/07/07 08:04:40;;;;;;;6.60;4.00;;;;;;;27.78;33.11;97773.56;5013536;28;20283;-69
2023/07/07 08:07:06;;;;;;;6.63;4.00;;;;;;;27.96;33.31;97772.44;5017138;28;20624;-69
2023/07/07 08:09:32;;;;;;;5.90;4.70;;;;;;;28.11;33.35;97775.34;5015622;28;20198;-69
2023/07/07 08:11:59;;;;;;;5.60;4.50;;;;;;;28.27;32.80;97775.50;4997603;28;20245;-71
2023/07/07 08:14:30;;;;;;;6.90;5.10;;;;;;;28.43;32.58;97774.59;5015636;28;20284;-70
2023/07/07 08:17:02;;;;;;;6.90;4.77;;;;;;;28.61;32.50;97770.69;5013857;28;20427;-70
2023/07/07 08:19:28;;;;;;;7.87;4.87;;;;;;;28.76;31.96;97780.03;5015627;28;20947;-70
2023/07/07 08:21:53;;;;;;;7.40;5.10;;;;;;;28.88;31.73;97774.47;5028058;28;20431;-70
2023/07/07 08:24:19;;;;;;;6.20;4.40;;;;;;;29.03;31.79;97776.47;5020423;28;20511;-69
2023/07/07 08:26:46;;;;;;;7.77;4.67;;;;;;;28.86;31.32;97777.41;5013464;28;20212;-70
2023/07/07 08:29:12;;;;;;;10.87;4.43;;;;;;;28.98;30.86;97773.75;5021784;28;20271;-71
2023/07/07 08:31:37;;;;;;;4.97;4.07;;;;;;;29.15;31.11;97776.28;5014514;28;20531;-70
2023/07/07 08:34:03;;;;;;;7.57;4.60;;;;;;;29.22;30.74;97777.69;5017594;28;20568;-68
2023/07/07 08:36:29;;;;;;;7.80;5.00;;;;;;;29.39;30.78;97768.63;5012783;28;20208;-70
2023/07/07 08:38:55;;;;;;;11.30;4.97;;;;;;;29.33;30.61;97770.44;5011966;28;20191;-69
2023/07/07 08:41:21;;;;;;;7.50;4.30;;;;;;;29.55;30.56;97769.53;5020467;28;20841;-70
2023/07/07 08:43:47;;;;;;;7.13;5.37;;;;;;;29.75;30.55;97771.50;5012998;28;20452;-71
2023/07/07 08:46:26;;;;;;;6.13;4.30;;;;;;;29.94;30.60;97762.94;5017788;28;20202;-72
2023/07/07 08:49:02;;;;;;;7.10;4.60;;;;;;;30.09;29.48;97760.31;5009652;28;22033;-70
2023/07/07 08:51:35;;;;;;;8.03;4.97;;;;;;;30.27;28.71;97766.28;4994269;28;20434;-71
2023/07/07 08:54:12;;;;;;;9.00;4.63;;;;;;;30.45;29.04;97768.50;5016827;28;20474;-70
2023/07/07 08:56:57;;;;;;;8.50;4.60;;;;;;;30.59;28.49;97773.41;5013697;28;20974;-70
2023/07/07 08:59:35;;;;;;;6.60;5.17;;;;;;;30.27;27.87;97769.81;5004574;28;20527;-71
2023/07/07 09:02:29;;;;;;;8.30;4.80;;;;;;;30.37;28.01;97769.00;4989514;28;20511;-71
2023/07/07 09:05:13;;;;;;;8.67;6.30;;;;;;;30.27;27.33;97769.00;5009220;28;20865;-70
2023/07/07 09:07:56;;;;;;;5.40;4.67;;;;;;;30.61;27.68;97760.44;5014538;28;20434;-70
2023/07/07 09:10:24;;;;;;;7.73;4.90;;;;;;;30.83;27.21;97762.06;5012115;28;20423;-70
2023/07/07 09:12:58;;;;;;;6.80;5.37;;;;;;;30.97;25.95;97763.13;5007996;28;20602;-69
2023/07/07 09:15:43;;;;;;;11.00;5.03;;;;;;;31.05;26.63;97765.28;5012001;28;20435;-70
2023/07/07 09:18:14;;;;;;;7.10;5.20;;;;;;;31.13;26.25;97771.25;5012328;28;20485;-71
2023/07/07 09:20:40;;;;;;;6.33;5.10;;;;;;;31.23;25.49;97760.41;5007763;28;20763;-70
2023/07/07 09:23:12;;;;;;;5.37;4.80;;;;;;;31.39;25.75;97761.19;5010886;28;20426;-70
2023/07/07 09:26:19;;;;;;;9.40;5.37;;;;;;;31.46;26.63;97756.28;5012281;28;20200;-72
2023/07/07 09:28:47;;;;;;;9.47;5.70;;;;;;;31.59;26.42;97759.47;5016648;28;20550;-71
2023/07/07 09:31:28;;;;;;;8.87;5.00;;;;;;;31.66;24.64;97755.41;5015667;28;20442;-71
2023/07/07 09:33:54;;;;;;;7.90;6.27;;;;;;;31.66;24.32;97744.56;5003614;28;20466;-70
2023/07/07 09:36:29;;;;;;;9.70;5.67;;;;;;;31.86;24.34;97745.59;5006782;28;20440;-70
2023/07/07 09:39:24;;;;;;;7.60;5.50;;;;;;;32.00;23.58;97738.50;5007533;28;20421;-71
2023/07/07 09:42:13;;;;;;;7.70;5.53;;;;;;;31.97;22.91;97749.88;5012893;28;20427;-70
2023/07/07 09:44:47;;;;;;;8.43;5.80;;;;;;;32.12;23.46;97745.47;5005795;28;20444;-70
2023/07/07 09:47:27;;;;;;;8.40;5.80;;;;;;;32.29;24.03;97748.63;5008629;28;20785;-70
2023/07/07 09:50:00;;;;;;;7.70;5.70;;;;;;;32.45;23.81;97745.81;5012732;28;20849;-70
2023/07/07 09:52:37;;;;;;;8.27;6.10;;;;;;;32.55;22.90;97737.59;5008884;28;20416;-70
2023/07/07 09:55:11;;;;;;;7.00;5.73;;;;;;;32.70;22.66;97735.84;5014707;28;20463;-70
2023/07/07 09:57:45;;;;;;;8.70;5.97;;;;;;;32.82;22.74;97733.59;5008828;28;20430;-70
2023/07/07 10:00:18;;;;;;;9.13;5.43;;;;;;;32.97;22.14;97737.28;5007034;28;20430;-70
2023/07/07 10:02:45;;;;;;;6.80;6.10;;;;;;;33.00;22.46;97729.38;5011896;28;20428;-71
2023/07/07 10:05:11;;;;;;;9.20;5.90;;;;;;;32.97;22.10;97740.78;5008535;28;20975;-73
2023/07/07 10:07:38;;;;;;;7.97;6.00;;;;;;;32.75;21.51;97739.31;5005934;28;20874;-71
2023/07/07 10:10:06;;;;;;;6.50;5.80;;;;;;;32.93;20.93;97737.84;5008899;28;20506;-70
2023/07/07 10:12:31;;;;;;;13.60;6.43;;;;;;;32.55;21.16;97736.78;5010439;28;20426;-70
2023/07/07 10:14:57;;;;;;;6.50;5.63;;;;;;;32.63;22.02;97733.47;5007328;28;20510;-73
2023/07/07 10:18:00;;;;;;;5.83;5.33;;;;;;;32.90;22.29;97724.84;5020202;28;20244;-71
2023/07/07 10:20:26;;;;;;;9.43;6.83;;;;;;;33.14;21.50;97725.97;4955592;28;20439;-70
2023/07/07 10:22:51;;;;;;;8.27;6.93;;;;;;;33.31;21.99;97729.06;4995782;28;20436;-72
2023/07/07 10:25:19;;;;;;;8.63;6.43;;;;;;;33.38;21.90;97723.31;5012819;28;20442;-71
2023/07/07 10:27:50;;;;;;;8.17;6.37;;;;;;;33.44;22.23;97719.41;5011012;28;20196;-70
2023/07/07 10:30:15;;;;;;;12.67;7.70;;;;;;;33.60;21.86;97711.88;5009392;28;20411;-71
2023/07/07 10:32:41;;;;;;;6.43;5.50;;;;;;;33.76;21.86;97712.50;5012537;28;20423;-70
2023/07/07 10:35:08;;;;;;;7.80;5.47;;;;;;;33.84;21.67;97719.19;5010070;28;20632;-72
2023/07/07 10:37:36;;;;;;;9.70;5.90;;;;;;;33.90;22.36;97723.50;5012619;28;20192;-70
2023/07/07 10:40:02;;;;;;;9.80;6.07;;;;;;;33.42;21.20;97721.59;5011149;28;20420;-71
2023/07/07 10:42:29;;;;;;;7.40;6.70;;;;;;;33.67;20.80;97725.94;5011073;28;20431;-70
2023/07/07 10:44:57;;;;;;;10.67;7.70;;;;;;;33.32;20.73;97727.13;5008389;28;20470;-73
2023/07/07 10:47:28;;;;;;;14.90;7.70;;;;;;;33.44;20.60;97727.56;5013975;28;20421;-71
2023/07/07 10:49:56;;;;;;;23.47;9.00;;;;;;;33.46;20.73;97724.56;5009368;28;20423;-71
2023/07/07 10:52:36;;;;;;;12.00;8.27;;;;;;;33.54;20.87;97722.00;5008207;28;20486;-71
2023/07/07 10:55:01;;;;;;;11.17;7.97;;;;;;;33.88;21.05;97719.47;5008815;28;20459;-71
2023/07/07 10:57:36;;;;;;;12.80;9.33;;;;;;;34.10;20.00;97716.97;5008613;28;20435;-72
2023/07/07 11:00:04;;;;;;;12.00;9.20;;;;;;;34.28;19.86;97728.09;5013004;28;20183;-70
2023/07/07 11:02:55;;;;;;;10.43;8.73;;;;;;;34.19;19.40;97714.38;5014185;28;20431;-72
2023/07/07 11:05:43;;;;;;;10.37;9.17;;;;;;;33.74;19.60;97722.88;5013552;28;21072;-71
2023/07/07 11:08:34;;;;;;;10.70;9.13;;;;;;;34.07;19.62;97716.75;5009475;28;20489;-71
2023/07/07 11:11:23;;;;;;;19.90;9.23;;;;;;;34.33;19.93;97714.44;5004923;28;20439;-72
2023/07/07 11:14:07;;;;;;;11.40;8.80;;;;;;;34.49;19.59;97715.03;5009572;28;20525;-71
2023/07/07 11:16:45;;;;;;;12.03;10.30;;;;;;;34.63;18.70;97717.81;5007247;28;20419;-71
2023/07/07 11:19:31;;;;;;;11.17;9.73;;;;;;;34.80;18.65;97708.25;5012020;28;20419;-69
2023/07/07 11:22:29;;;;;;;10.77;9.40;;;;;;;34.79;18.62;97706.63;5020989;28;20466;-71
2023/07/07 11:25:05;;;;;;;12.93;7.80;;;;;;;34.64;19.21;97703.09;5007873;28;20962;-71
2023/07/07 11:28:09;;;;;;;9.93;8.20;;;;;;;34.17;19.92;97705.72;5016549;28;20426;-70
2023/07/07 11:30:58;;;;;;;9.50;7.60;;;;;;;33.92;19.86;97699.56;5018061;28;20422;-70
2023/07/07 11:33:47;;;;;;;10.10;7.57;;;;;;;34.38;19.36;97698.06;5007662;28;20986;-69
2023/07/07 11:36:54;;;;;;;12.00;8.03;;;;;;;34.56;18.80;97690.97;5009809;28;20419;-71
2023/07/07 11:39:41;;;;;;;10.77;8.10;;;;;;;34.29;19.06;97691.66;5019293;28;20514;-69
2023/07/07 11:42:12;;;;;;;10.77;7.60;;;;;;;34.50;18.88;97691.38;5014041;28;20531;-71